TAF Text Data
IDs:
Format:
Raw Decoded Include METAR

Data at: 0319 UTC 07 Jun 2020

METAR for:KTOB (Dodge Center Arpt, MN, US)
Text:KTOB 070315Z AUTO 10008KT 10SM OVC050 19/13 A3003 RMK AO2 LTG DSNT W AND NW PWINO
Temperature: 19.0°C ( 66°F)
Dewpoint: 13.0°C ( 55°F) [RH = 68%]
Pressure (altimeter):30.03 inches Hg (1017.0 mb)
Winds:from the E (100 degrees) at 9 MPH (8 knots; 4.1 m/s)
Visibility:10 or more sm (16+ km)
Ceiling:5000 feet AGL
Clouds: overcast cloud deck at 5000 feet AGL
QC Flag:automated observation with no human augmentation

TAF for:KTOB (Dodge Center Arpt, MN, US)
Text:No data found